createdAt,value
2018-10-11T00:04:54.677Z,20.07
2018-10-11T00:09:57.878Z,18.97
2018-10-11T00:15:01.054Z,19.03
2018-10-11T00:20:04.518Z,21.83
2018-10-11T00:25:07.713Z,18.63
2018-10-11T00:30:10.839Z,23.17
2018-10-11T00:35:13.995Z,20.20
2018-10-11T00:40:17.170Z,17.97
2018-10-11T00:45:20.282Z,19.10
2018-10-11T00:50:23.630Z,21.80
2018-10-11T00:55:26.798Z,19.27
2018-10-11T01:00:29.953Z,21.87
2018-10-11T01:05:33.085Z,22.80
2018-10-11T01:10:36.271Z,23.23
2018-10-11T01:15:39.442Z,20.63
2018-10-11T01:20:42.550Z,29.43
2018-10-11T01:25:45.690Z,24.53
2018-10-11T01:31:13.855Z,21.50
2018-10-11T01:36:17.046Z,21.97
2018-10-11T01:41:20.530Z,20.77
2018-10-11T01:46:23.693Z,21.90
2018-10-11T01:51:28.488Z,23.80
2018-10-11T01:56:31.694Z,23.20
2018-10-11T02:01:38.544Z,21.87
2018-10-11T02:06:40.564Z,24.53
2018-10-11T02:11:43.830Z,24.97
2018-10-11T02:16:47.030Z,22.20
2018-10-11T02:21:50.195Z,23.63
2018-10-11T02:26:53.435Z,24.63
2018-10-11T02:31:56.607Z,24.37
2018-10-11T02:36:59.751Z,24.47
2018-10-11T02:42:02.922Z,25.37
2018-10-11T02:47:06.094Z,24.00
2018-10-11T02:52:09.250Z,24.10
2018-10-11T02:57:48.928Z,31.73
2018-10-11T03:02:52.097Z,24.80
2018-10-11T03:07:55.270Z,25.30
2018-10-11T03:12:58.428Z,26.67
2018-10-11T03:18:01.591Z,24.80
2018-10-11T03:23:04.762Z,25.53
2018-10-11T03:28:08.006Z,26.83
2018-10-11T03:33:11.899Z,26.00
2018-10-11T03:38:15.112Z,27.77
2018-10-11T03:43:18.264Z,27.80
2018-10-11T03:48:21.415Z,24.60
2018-10-11T03:53:24.604Z,25.43
2018-10-11T03:58:27.939Z,25.90
2018-10-11T04:03:31.124Z,28.57
2018-10-11T04:08:34.304Z,27.43
2018-10-11T04:13:37.441Z,30.33
2018-10-11T04:18:40.759Z,30.03
2018-10-11T04:23:43.926Z,30.40
2018-10-11T04:28:47.094Z,26.47
2018-10-11T04:33:50.370Z,29.63
2018-10-11T04:38:53.442Z,31.93
2018-10-11T04:43:56.755Z,26.17
2018-10-11T04:48:59.850Z,28.50
2018-10-11T04:54:03.037Z,28.97
2018-10-11T04:59:06.303Z,29.60
2018-10-11T05:04:09.468Z,27.37
2018-10-11T05:09:12.580Z,30.73
2018-10-11T05:14:15.718Z,32.27
2018-10-11T05:19:18.878Z,26.93
2018-10-11T05:24:22.028Z,28.90
2018-10-11T05:29:25.478Z,29.87
2018-10-11T05:34:28.614Z,30.50
2018-10-11T05:39:31.778Z,35.43
2018-10-11T05:44:34.933Z,31.13
2018-10-11T05:49:38.023Z,31.30
2018-10-11T05:54:41.171Z,31.93
2018-10-11T05:59:44.307Z,31.37
2018-10-11T06:04:47.384Z,33.33
2018-10-11T06:09:50.587Z,29.67
2018-10-11T06:14:53.751Z,37.13
2018-10-11T06:19:56.900Z,29.33
2018-10-11T06:25:00.040Z,28.20
2018-10-11T06:30:03.245Z,26.43
2018-10-11T06:35:06.500Z,27.40
2018-10-11T06:40:09.637Z,22.53
2018-10-11T06:45:14.148Z,27.00
2018-10-11T06:50:17.522Z,28.90
2018-10-11T06:55:20.591Z,22.80
2018-10-11T07:00:23.948Z,25.23
2018-10-11T07:05:27.082Z,22.03
2018-10-11T07:10:30.225Z,23.20
2018-10-11T07:15:33.346Z,25.00
2018-10-11T07:20:36.542Z,20.52
2018-10-11T07:25:39.723Z,21.07
2018-10-11T07:30:42.869Z,20.32
2018-10-11T07:35:45.968Z,23.02
2018-10-11T07:40:49.198Z,20.05
2018-10-11T07:45:52.396Z,19.30
2018-10-11T07:50:55.547Z,20.45
2018-10-11T07:55:58.706Z,26.83
2018-10-11T08:01:01.863Z,28.03
2018-10-11T08:06:04.923Z,22.73
2018-10-11T08:11:08.305Z,25.53
2018-10-11T08:16:11.322Z,25.20
2018-10-11T08:21:14.839Z,25.97
2018-10-11T08:26:18.349Z,27.02
2018-10-11T08:31:21.117Z,26.97
2018-10-11T08:36:24.372Z,31.03
2018-10-11T08:41:27.559Z,27.00
2018-10-11T08:46:30.743Z,27.77
2018-10-11T08:51:33.947Z,32.80
2018-10-11T08:56:37.050Z,28.00
2018-10-11T09:01:40.187Z,29.33
2018-10-11T09:06:43.374Z,27.63
2018-10-11T09:11:46.534Z,30.73
2018-10-11T09:16:49.646Z,27.57
2018-10-11T09:21:52.862Z,30.20
2018-10-11T09:26:56.064Z,24.23
2018-10-11T09:31:59.234Z,27.55
2018-10-11T09:37:02.343Z,24.47
2018-10-11T09:42:05.575Z,30.40
2018-10-11T09:47:08.786Z,29.10
2018-10-11T09:52:11.959Z,23.10
2018-10-11T09:57:47.045Z,21.93
2018-10-11T10:02:50.676Z,21.05
2018-10-11T10:07:53.798Z,22.95
2018-10-11T10:12:57.046Z,25.02
2018-10-11T10:18:00.171Z,20.37
2018-10-11T10:23:03.347Z,20.80
2018-10-11T10:28:06.450Z,21.00
2018-10-11T10:33:09.621Z,19.87
2018-10-11T10:38:12.778Z,17.87
2018-10-11T10:43:15.937Z,19.55
2018-10-11T10:48:19.145Z,20.88
2018-10-11T10:53:22.244Z,22.93
2018-10-11T10:58:25.478Z,20.92
2018-10-11T11:03:28.644Z,19.92
2018-10-11T11:08:31.791Z,20.32
2018-10-11T11:13:35.171Z,21.02
2018-10-11T11:18:38.341Z,20.40
2018-10-11T11:23:41.450Z,18.27
2018-10-11T11:28:44.592Z,23.92
2018-10-11T11:33:47.698Z,21.37
2018-10-11T11:38:50.872Z,20.55
2018-10-11T11:43:54.023Z,23.42
2018-10-11T11:48:57.131Z,22.67
2018-10-11T11:54:00.301Z,21.42
2018-10-11T11:59:03.462Z,23.20
2018-10-11T12:04:06.629Z,24.70
2018-10-11T12:09:11.482Z,19.95
2018-10-11T12:14:14.659Z,21.35
2018-10-11T12:19:17.776Z,18.80
2018-10-11T12:24:20.923Z,18.77
2018-10-11T12:29:24.108Z,21.10
2018-10-11T12:34:27.238Z,19.35
2018-10-11T12:39:30.414Z,18.75
2018-10-11T12:44:33.562Z,20.15
2018-10-11T12:49:40.580Z,18.25
2018-10-11T12:54:39.854Z,17.73
2018-10-11T12:59:43.057Z,17.52
2018-10-11T13:04:46.608Z,19.00
2018-10-11T13:09:49.687Z,21.73
2018-10-11T13:14:52.915Z,23.33
2018-10-11T13:19:56.058Z,18.42
2018-10-11T13:24:59.218Z,17.77
2018-10-11T13:30:02.367Z,17.60
2018-10-11T13:35:05.839Z,18.70
2018-10-11T13:40:08.984Z,20.72
2018-10-11T13:45:12.162Z,18.82
2018-10-11T13:50:15.363Z,20.37
2018-10-11T13:55:18.459Z,22.70
2018-10-11T14:00:21.570Z,21.05
2018-10-11T14:05:24.680Z,20.05
2018-10-11T14:10:27.827Z,20.30
2018-10-11T14:15:30.990Z,18.87
2018-10-11T14:20:34.291Z,22.42
2018-10-11T14:25:37.360Z,20.20
2018-10-11T14:30:40.553Z,17.92
2018-10-11T14:35:43.727Z,20.02
2018-10-11T14:40:46.978Z,17.52
2018-10-11T14:45:50.115Z,19.48
2018-10-11T14:50:53.280Z,18.73
2018-10-11T14:55:56.404Z,25.48
2018-10-11T15:00:59.612Z,19.20
2018-10-11T15:06:02.774Z,23.02
2018-10-11T15:11:06.224Z,19.17
2018-10-11T15:16:09.340Z,19.87
2018-10-11T15:21:13.483Z,17.52
2018-10-11T15:26:16.911Z,21.73
2018-10-11T15:31:20.046Z,17.63
2018-10-11T15:36:23.246Z,18.92
2018-10-11T15:41:26.425Z,18.35
2018-10-11T15:46:29.818Z,18.45
2018-10-11T15:51:32.998Z,17.42
2018-10-11T15:56:36.421Z,21.65
2018-10-11T16:01:39.608Z,20.10
2018-10-11T16:06:42.732Z,20.77
2018-10-11T16:11:45.919Z,16.42
2018-10-11T16:16:49.059Z,17.27
2018-10-11T16:21:52.177Z,21.73
2018-10-11T16:26:56.080Z,16.87
2018-10-11T16:31:59.168Z,21.12
2018-10-11T16:37:02.353Z,18.67
2018-10-11T16:42:05.519Z,17.25
2018-10-11T16:47:08.645Z,18.98
2018-10-11T16:52:11.750Z,25.97
2018-10-11T16:57:15.854Z,19.35
2018-10-11T17:02:19.010Z,19.48
2018-10-11T17:07:22.489Z,19.27
2018-10-11T17:12:25.684Z,17.32
2018-10-11T17:17:28.895Z,19.42
2018-10-11T17:22:32.152Z,18.00
2018-10-11T17:27:35.546Z,20.88
2018-10-11T17:32:38.826Z,19.02
2018-10-11T17:37:42.038Z,18.95
2018-10-11T17:42:45.294Z,26.67
2018-10-11T17:47:48.542Z,20.02
2018-10-11T17:52:51.690Z,24.80
2018-10-11T17:57:54.823Z,24.10
2018-10-11T18:02:57.960Z,23.53
2018-10-11T18:08:01.277Z,27.00
2018-10-11T18:13:04.463Z,19.97
2018-10-11T18:18:07.822Z,35.27
2018-10-11T18:23:11.127Z,32.77
2018-10-11T18:28:14.260Z,33.70
2018-10-11T18:33:17.362Z,26.57
2018-10-11T18:38:20.613Z,20.40
2018-10-11T18:43:23.783Z,23.90
2018-10-11T18:48:26.957Z,22.02
2018-10-11T18:53:30.173Z,20.97
2018-10-11T18:58:33.316Z,18.03
2018-10-11T19:03:36.433Z,19.23
2018-10-11T19:08:39.604Z,19.10
2018-10-11T19:13:42.954Z,24.87
2018-10-11T19:18:46.238Z,18.03
2018-10-11T19:23:49.322Z,19.03
2018-10-11T19:28:52.470Z,20.13
2018-10-11T19:33:55.643Z,21.43
2018-10-11T19:38:58.836Z,20.97
2018-10-11T19:44:01.957Z,20.60
2018-10-11T19:49:05.377Z,21.27
2018-10-11T19:54:08.477Z,22.43
2018-10-11T19:59:11.718Z,20.23
2018-10-11T20:04:14.943Z,21.33
2018-10-11T20:09:18.164Z,20.70
2018-10-11T20:14:21.507Z,19.90
2018-10-11T20:19:24.717Z,18.20
2018-10-11T20:24:28.254Z,22.80
2018-10-11T20:29:31.471Z,21.00
2018-10-11T20:34:34.632Z,22.23
2018-10-11T20:39:37.895Z,24.93
2018-10-11T20:44:41.059Z,23.67
2018-10-11T20:49:44.228Z,21.33
2018-10-11T20:54:47.395Z,23.57
2018-10-11T20:59:50.918Z,23.27
2018-10-11T21:04:54.079Z,22.97
2018-10-11T21:09:57.280Z,20.70
2018-10-11T21:15:00.422Z,22.50
2018-10-11T21:20:03.642Z,19.53
2018-10-11T21:25:06.755Z,23.07
2018-10-11T21:30:09.879Z,21.70
2018-10-11T21:35:13.071Z,22.40
2018-10-11T21:40:16.257Z,21.97
2018-10-11T21:45:19.379Z,20.07
2018-10-11T21:50:22.562Z,19.50
2018-10-11T21:55:25.746Z,23.67
2018-10-11T22:00:46.805Z,20.53
2018-10-11T22:05:49.939Z,21.07
2018-10-11T22:10:53.043Z,23.07
2018-10-11T22:15:56.202Z,21.53
2018-10-11T22:20:59.445Z,25.93
2018-10-11T22:26:02.463Z,22.80
2018-10-11T22:31:05.615Z,22.73
2018-10-11T22:36:09.362Z,22.63
2018-10-11T22:41:12.822Z,23.80
2018-10-11T22:46:15.968Z,23.03
2018-10-11T22:51:19.169Z,21.97
2018-10-11T22:56:22.678Z,22.40
2018-10-11T23:01:25.834Z,22.43
2018-10-11T23:06:29.037Z,21.83
2018-10-11T23:11:32.202Z,21.03
2018-10-11T23:16:35.364Z,20.87
2018-10-11T23:21:38.545Z,25.23
2018-10-11T23:26:41.922Z,24.60
2018-10-11T23:31:45.037Z,24.50
2018-10-11T23:36:48.225Z,22.37
2018-10-11T23:41:51.334Z,24.50
2018-10-11T23:46:54.680Z,24.20
2018-10-11T23:51:57.798Z,24.67
2018-10-11T23:57:00.953Z,24.87
